Chennai, India
Current Conditions -  °F | °C
As of 2:40 PM on Sunday 23 Nov 2014 (Local Time) from VOMM Reporting Station
Scattered Clouds Scattered Clouds  
Wind Chill: 30°   Ceiling: Unl
Heat Index: 32°   Visibility: 4mi
Dew Point: 20°   Wind: 10mph
Humidity: 55%   Direction: 50°NE
Pressure: 29.83"   Gusts: NA
Location:  13.06°N, 80.25°E
Report Text: VOMM 230940Z 05009KT 7000 SCT020 30/20 Q1010 NOSIG
Loading
Personal Weather Stations






























Interactive Weather Map New forecast layout! Learn more

10-Day Weather Forecast

Advertisements
Track Severe Weather on mobile